メインページ
METAR-TAF:

METAR-TAF

空港 :

ムルマンスク, ロシア

緯度: 68-58N, 経度: 033-03E, 海抜: 51m

現時点の気象観測

当レポートは41分前の14:00(UTC)に作成
南東の風 4kt
気温 -24°C
湿度 76%
気圧 1021 hPa
視程10km以上
1,500メートル以下は雲なし、積乱雲なし

METAR: ULMM 211400Z 14002MPS CAVOK M24/M27 Q1021 R31/450136 NOSIG RMK QFE758

時間: 17:41 (14:41 UTC)

予報

当レポートは51分前の13:50(UTC)に作成
予報は21日の 15時(UTC)から 22日の 15時(UTC)まで有効
南東の風 4kt
視程10km以上
高度1100ftの雲は散在している
21日の 21時(UTC)から 22日の 06時(UTC)まで一時的に
変向風 2kt
視程: 5000m
高度1100ftの千切れ雲あり, 積乱雲.
弱いにわか雪, 靄

TAF: ULMM 211350Z 2115/2215 13002MPS 9999 SCT011 TEMPO 2121/2206 VRB01MPS 5000 -SHSN BR BKN011CB

4,000以上の空港の気象観測と天気予報(METAR報とTAF報)

利用可能な観測所は地図上に黄色い丸と赤い丸で示す。

丸の上にカーソルを重ねると観測所名を参照できる。

次にクリックすると気象観測と天気予報を参照できる。

マップの切り替え:黒色「×」印の緑ボタンをクリックして拡大、「-」印の緑ボタンをクリックして縮小、緑色の三角印をクリックして隣りの地図に切り替え


METAR-TAF: